createdAt,value
2019-03-31T00:01:50.834Z,80.85
2019-03-31T00:04:21.906Z,80.89
2019-03-31T00:06:52.714Z,81.05
2019-03-31T00:09:24.105Z,81.50
2019-03-31T00:11:55.323Z,81.54
2019-03-31T00:14:26.422Z,81.67
2019-03-31T00:16:57.835Z,82.10
2019-03-31T00:19:29.007Z,82.00
2019-03-31T00:22:00.163Z,82.06
2019-03-31T00:24:31.685Z,82.07
2019-03-31T00:27:02.443Z,81.71
2019-03-31T00:29:33.551Z,81.33
2019-03-31T00:32:04.671Z,81.40
2019-03-31T00:34:36.380Z,81.22
2019-03-31T00:37:07.846Z,81.59
2019-03-31T00:39:38.944Z,81.50
2019-03-31T00:42:10.235Z,81.48
2019-03-31T00:44:41.113Z,81.21
2019-03-31T00:47:12.331Z,81.31
2019-03-31T00:49:43.153Z,81.40
2019-03-31T00:52:13.996Z,81.50
2019-03-31T00:54:45.242Z,81.70
2019-03-31T00:57:16.024Z,81.88
2019-03-31T00:59:46.955Z,81.98
2019-03-31T01:02:19.346Z,82.04
2019-03-31T01:04:53.388Z,82.31
2019-03-31T01:07:24.529Z,82.42
2019-03-31T01:09:56.469Z,82.57
2019-03-31T01:12:27.221Z,82.86
2019-03-31T01:14:58.009Z,82.71
2019-03-31T01:17:28.931Z,82.75
2019-03-31T01:19:59.997Z,83.15
2019-03-31T01:22:31.005Z,83.33
2019-03-31T01:25:02.223Z,83.14
2019-03-31T01:27:33.382Z,82.99
2019-03-31T01:30:08.499Z,82.88
2019-03-31T01:32:39.510Z,83.08
2019-03-31T01:35:10.910Z,83.11
2019-03-31T01:37:42.287Z,83.12
2019-03-31T01:40:14.616Z,83.12
2019-03-31T01:42:45.865Z,83.30
2019-03-31T01:45:16.626Z,83.25
2019-03-31T01:47:47.936Z,83.39
2019-03-31T01:50:19.011Z,83.72
2019-03-31T01:52:49.731Z,83.88
2019-03-31T01:55:20.814Z,83.41
2019-03-31T01:57:52.312Z,83.40
2019-03-31T02:00:25.207Z,83.65
2019-03-31T02:02:57.168Z,83.78
2019-03-31T02:05:28.050Z,83.72
2019-03-31T02:07:59.493Z,84.08
2019-03-31T02:10:30.642Z,84.79
2019-03-31T02:13:01.919Z,84.49
2019-03-31T02:15:33.362Z,84.14
2019-03-31T02:18:04.944Z,84.83
2019-03-31T02:20:37.368Z,84.85
2019-03-31T02:23:08.665Z,85.09
2019-03-31T02:25:39.426Z,85.49
2019-03-31T02:28:10.570Z,85.20
2019-03-31T02:30:42.243Z,84.64
2019-03-31T02:33:13.749Z,84.37
2019-03-31T02:35:44.797Z,84.23
2019-03-31T02:38:16.163Z,84.45
2019-03-31T02:40:47.050Z,84.71
2019-03-31T02:43:18.044Z,84.55
2019-03-31T02:45:51.444Z,84.70
2019-03-31T02:48:23.829Z,84.72
2019-03-31T02:50:55.342Z,84.86
2019-03-31T02:53:26.436Z,84.91
2019-03-31T02:55:57.410Z,85.29
2019-03-31T02:58:28.024Z,85.30
2019-03-31T03:00:58.702Z,85.05
2019-03-31T03:03:29.407Z,85.41
2019-03-31T03:06:01.105Z,85.66
2019-03-31T03:08:31.839Z,86.05
2019-03-31T03:11:03.147Z,85.88
2019-03-31T03:13:35.600Z,85.92
2019-03-31T03:16:08.901Z,86.14
2019-03-31T03:18:40.228Z,86.23
2019-03-31T03:21:10.771Z,86.16
2019-03-31T03:23:41.652Z,86.17
2019-03-31T03:26:12.955Z,86.62
2019-03-31T03:28:44.647Z,85.89
2019-03-31T03:31:16.799Z,84.70
2019-03-31T03:33:49.090Z,83.91
2019-03-31T03:36:19.936Z,82.85
2019-03-31T03:38:51.251Z,82.29
2019-03-31T03:41:22.188Z,81.35
2019-03-31T03:43:57.071Z,80.39
2019-03-31T03:46:26.241Z,79.66
2019-03-31T03:48:57.264Z,79.05
2019-03-31T03:51:29.213Z,78.66
2019-03-31T03:54:00.779Z,78.65
2019-03-31T03:56:31.987Z,78.19
2019-03-31T03:59:02.980Z,77.84
2019-03-31T04:01:33.743Z,77.66
2019-03-31T04:04:04.911Z,77.34
2019-03-31T04:06:36.236Z,77.28
2019-03-31T04:09:07.256Z,76.87
2019-03-31T04:11:38.418Z,76.84
2019-03-31T04:14:09.841Z,76.27
2019-03-31T04:16:41.272Z,75.98
2019-03-31T04:19:12.528Z,76.30
2019-03-31T04:21:43.705Z,75.83
2019-03-31T04:24:14.625Z,75.62
2019-03-31T04:26:45.866Z,75.26
2019-03-31T04:29:17.272Z,74.92
2019-03-31T04:31:48.129Z,74.91
2019-03-31T04:34:19.870Z,74.86
2019-03-31T04:36:50.815Z,74.64
2019-03-31T04:39:22.023Z,74.47
2019-03-31T04:41:53.266Z,74.46
2019-03-31T04:44:25.075Z,74.38
2019-03-31T04:46:56.432Z,74.56
2019-03-31T04:49:28.120Z,74.62
2019-03-31T04:51:59.798Z,74.51
2019-03-31T04:54:32.124Z,74.62
2019-03-31T04:57:04.678Z,74.48
2019-03-31T04:59:35.719Z,74.56
2019-03-31T05:02:06.483Z,74.81
2019-03-31T05:04:37.793Z,74.78
2019-03-31T05:07:08.963Z,74.93
2019-03-31T05:09:39.930Z,74.73
2019-03-31T05:12:11.398Z,74.84
2019-03-31T05:14:43.219Z,74.85
2019-03-31T05:17:14.568Z,75.00
2019-03-31T05:19:45.980Z,75.09
2019-03-31T05:22:17.299Z,74.99
2019-03-31T05:24:48.600Z,74.81
2019-03-31T05:27:19.298Z,74.36
2019-03-31T05:29:51.733Z,74.52
2019-03-31T05:32:22.616Z,74.43
2019-03-31T05:34:54.069Z,74.28
2019-03-31T05:37:24.926Z,74.34
2019-03-31T05:39:55.750Z,74.46
2019-03-31T05:42:27.019Z,74.56
2019-03-31T05:44:58.230Z,74.59
2019-03-31T05:47:30.394Z,74.43
2019-03-31T05:50:01.706Z,74.35
2019-03-31T05:52:32.733Z,74.52
2019-03-31T05:55:04.270Z,74.31
2019-03-31T05:57:35.674Z,73.91
2019-03-31T06:00:08.184Z,73.94
2019-03-31T06:02:39.139Z,74.33
2019-03-31T06:05:10.381Z,74.29
2019-03-31T06:07:41.123Z,74.36
2019-03-31T06:10:12.343Z,74.01
2019-03-31T06:12:43.073Z,73.46
2019-03-31T06:15:13.919Z,73.07
2019-03-31T06:17:45.083Z,73.21
2019-03-31T06:20:16.640Z,72.76
2019-03-31T06:22:47.353Z,72.96
2019-03-31T06:25:18.131Z,72.59
2019-03-31T06:27:49.229Z,72.34
2019-03-31T06:30:20.276Z,72.75
2019-03-31T06:32:51.592Z,71.89
2019-03-31T06:35:22.824Z,71.61
2019-03-31T06:37:53.811Z,71.53
2019-03-31T06:40:24.747Z,71.92
2019-03-31T06:42:55.753Z,72.01
2019-03-31T06:45:26.306Z,71.98
2019-03-31T06:47:57.273Z,71.50
2019-03-31T06:50:28.472Z,71.60
2019-03-31T06:53:00.073Z,70.81
2019-03-31T06:55:31.106Z,70.90
2019-03-31T06:58:21.712Z,71.29
2019-03-31T07:00:52.473Z,70.93
2019-03-31T07:03:23.168Z,70.29
2019-03-31T07:05:54.226Z,70.38
2019-03-31T07:08:24.991Z,70.34
2019-03-31T07:10:55.639Z,70.74
2019-03-31T07:13:26.453Z,70.42
2019-03-31T07:15:58.215Z,70.56
2019-03-31T07:18:29.683Z,70.30
2019-03-31T07:21:00.820Z,70.31
2019-03-31T07:23:31.587Z,70.61
2019-03-31T07:26:02.222Z,69.73
2019-03-31T07:28:33.206Z,69.92
2019-03-31T07:31:04.269Z,69.66
2019-03-31T07:33:35.184Z,69.17
2019-03-31T07:36:06.386Z,68.70
2019-03-31T07:38:39.327Z,68.13
2019-03-31T07:41:12.959Z,67.76
2019-03-31T07:43:42.849Z,68.25
2019-03-31T07:46:13.788Z,67.55
2019-03-31T07:48:45.603Z,67.29
2019-03-31T07:51:16.481Z,67.58
2019-03-31T07:53:47.364Z,67.50
2019-03-31T07:56:18.524Z,66.50
2019-03-31T07:58:49.499Z,67.01
2019-03-31T08:01:20.509Z,67.18
2019-03-31T08:03:51.469Z,67.05
2019-03-31T08:06:22.560Z,66.57
2019-03-31T08:08:53.591Z,65.52
2019-03-31T08:11:24.410Z,65.66
2019-03-31T08:13:55.504Z,65.45
2019-03-31T08:16:26.066Z,64.44
2019-03-31T08:18:56.823Z,65.01
2019-03-31T08:21:27.366Z,64.13
2019-03-31T08:23:58.094Z,64.57
2019-03-31T08:26:28.781Z,65.04
2019-03-31T08:28:59.453Z,64.46
2019-03-31T08:31:29.886Z,65.18
2019-03-31T08:34:00.702Z,64.49
2019-03-31T08:36:35.106Z,64.52
2019-03-31T08:39:06.290Z,64.76
2019-03-31T08:41:36.902Z,64.15
2019-03-31T08:44:07.542Z,64.31
2019-03-31T08:46:38.134Z,64.01
2019-03-31T08:49:08.649Z,64.00
2019-03-31T08:51:39.541Z,64.00
2019-03-31T08:54:10.101Z,64.21
2019-03-31T08:56:40.823Z,64.32
2019-03-31T08:59:11.302Z,64.98
2019-03-31T09:01:43.845Z,65.22
2019-03-31T09:04:14.325Z,65.02
2019-03-31T09:06:45.142Z,65.14
2019-03-31T09:09:15.688Z,65.61
2019-03-31T09:11:46.361Z,65.73
2019-03-31T09:14:16.816Z,65.83
2019-03-31T09:16:47.320Z,65.13
2019-03-31T09:19:17.941Z,64.00
2019-03-31T09:21:49.020Z,64.46
2019-03-31T09:24:20.548Z,64.88
2019-03-31T09:26:52.114Z,64.65
2019-03-31T09:29:23.291Z,64.68
2019-03-31T09:31:55.327Z,65.22
2019-03-31T09:34:26.343Z,64.37
2019-03-31T09:36:59.029Z,64.98
2019-03-31T09:39:30.260Z,65.75
2019-03-31T09:42:01.356Z,65.60
2019-03-31T09:44:32.397Z,65.38
2019-03-31T09:47:03.303Z,65.82
2019-03-31T09:49:34.606Z,65.98
2019-03-31T09:52:06.082Z,66.03
2019-03-31T09:54:38.040Z,66.03
2019-03-31T09:57:09.319Z,65.28
2019-03-31T09:59:40.312Z,64.38
2019-03-31T10:02:11.435Z,64.00
2019-03-31T10:04:42.461Z,63.82
2019-03-31T10:07:14.212Z,63.77
2019-03-31T10:09:45.768Z,63.53
2019-03-31T10:12:17.338Z,62.46
2019-03-31T10:14:48.413Z,61.98
2019-03-31T10:17:19.544Z,61.89
2019-03-31T10:19:50.510Z,61.79
2019-03-31T10:22:22.084Z,60.29
2019-03-31T10:24:53.229Z,60.27
2019-03-31T10:27:24.348Z,59.56
2019-03-31T10:29:55.585Z,58.38
2019-03-31T10:32:26.715Z,59.42
2019-03-31T10:34:58.063Z,57.98
2019-03-31T10:37:29.642Z,57.55
2019-03-31T10:40:00.555Z,57.24
2019-03-31T10:42:31.688Z,56.91
2019-03-31T10:45:02.355Z,56.80
2019-03-31T10:47:33.794Z,56.80
2019-03-31T10:50:06.745Z,56.70
2019-03-31T10:52:38.120Z,57.42
2019-03-31T10:55:09.063Z,57.54
2019-03-31T10:57:40.349Z,58.23
2019-03-31T11:00:11.736Z,58.75
2019-03-31T11:02:43.192Z,57.64
2019-03-31T11:05:14.346Z,58.31
2019-03-31T11:07:45.429Z,57.46
2019-03-31T11:10:16.289Z,57.51
2019-03-31T11:12:47.024Z,57.95
2019-03-31T11:15:18.581Z,58.22
2019-03-31T11:17:50.066Z,59.26
2019-03-31T11:20:21.415Z,58.70
2019-03-31T11:22:54.420Z,58.98
2019-03-31T11:25:29.234Z,57.86
2019-03-31T11:27:59.272Z,58.04
2019-03-31T11:30:30.209Z,58.51
2019-03-31T11:33:01.377Z,56.98
2019-03-31T11:35:32.436Z,58.02
2019-03-31T11:38:03.343Z,56.58
2019-03-31T11:40:34.109Z,56.10
2019-03-31T11:43:05.389Z,56.62
2019-03-31T11:45:36.861Z,57.48
2019-03-31T11:48:08.070Z,57.87
2019-03-31T11:50:39.431Z,58.45
2019-03-31T11:53:11.439Z,57.29
2019-03-31T11:55:42.329Z,57.28
2019-03-31T11:58:13.904Z,57.38
2019-03-31T12:00:46.429Z,57.04
2019-03-31T12:03:17.688Z,56.77
2019-03-31T12:05:48.628Z,56.63
2019-03-31T12:08:19.833Z,56.69
2019-03-31T12:10:51.531Z,55.94
2019-03-31T12:13:22.429Z,56.43
2019-03-31T12:15:53.172Z,55.06
2019-03-31T12:18:24.109Z,54.13
2019-03-31T12:20:55.030Z,55.48
2019-03-31T12:23:26.787Z,54.61
2019-03-31T12:25:57.954Z,55.20
2019-03-31T12:28:28.841Z,54.55
2019-03-31T12:30:59.766Z,54.32
2019-03-31T12:33:31.170Z,55.29
2019-03-31T12:36:02.713Z,55.30
2019-03-31T12:38:33.862Z,54.69
2019-03-31T12:41:05.843Z,55.29
2019-03-31T12:43:37.336Z,55.38
2019-03-31T12:46:08.280Z,56.31
2019-03-31T12:48:39.844Z,55.90
2019-03-31T12:51:11.231Z,56.38
2019-03-31T12:53:42.400Z,56.51
2019-03-31T12:56:13.530Z,56.45
2019-03-31T12:58:44.904Z,56.46
2019-03-31T13:01:15.851Z,56.63
2019-03-31T13:03:47.284Z,56.66
2019-03-31T13:06:18.335Z,56.29
2019-03-31T13:08:49.113Z,56.83
2019-03-31T13:11:20.303Z,56.58
2019-03-31T13:13:51.286Z,55.81
2019-03-31T13:16:22.441Z,54.73
2019-03-31T13:18:53.432Z,53.61
2019-03-31T13:21:24.386Z,52.34
2019-03-31T13:23:56.388Z,53.04
2019-03-31T13:26:27.262Z,53.37
2019-03-31T13:28:58.523Z,52.63
2019-03-31T13:31:29.586Z,53.18
2019-03-31T13:34:01.002Z,53.29
2019-03-31T13:36:32.166Z,53.31
2019-03-31T13:39:03.087Z,54.16
2019-03-31T13:41:34.821Z,54.34
2019-03-31T13:44:05.659Z,54.50
2019-03-31T13:46:36.707Z,54.59
2019-03-31T13:49:07.403Z,55.15
2019-03-31T13:51:38.002Z,55.59
2019-03-31T13:54:08.635Z,56.30
2019-03-31T13:56:40.022Z,55.50
2019-03-31T13:59:10.870Z,55.67
2019-03-31T14:01:41.835Z,55.50
2019-03-31T14:04:13.016Z,54.49
2019-03-31T14:06:43.845Z,53.88
2019-03-31T14:09:14.645Z,53.40
2019-03-31T14:11:48.435Z,52.23
2019-03-31T14:14:17.363Z,52.76
2019-03-31T14:16:48.013Z,51.63
2019-03-31T14:19:18.717Z,51.96
2019-03-31T14:21:49.326Z,52.24
2019-03-31T14:24:20.123Z,52.23
2019-03-31T14:26:50.606Z,52.93
2019-03-31T14:29:21.447Z,52.63
2019-03-31T14:31:52.657Z,51.22
2019-03-31T14:34:23.044Z,50.60
2019-03-31T14:36:55.926Z,50.84
2019-03-31T14:39:26.677Z,50.42
2019-03-31T14:42:00.174Z,51.50
2019-03-31T14:44:30.845Z,50.18
2019-03-31T14:47:01.519Z,50.00
2019-03-31T14:49:32.205Z,49.10
2019-03-31T14:52:02.859Z,49.39
2019-03-31T14:54:33.246Z,49.54
2019-03-31T14:57:03.669Z,47.08
2019-03-31T14:59:34.385Z,46.96
2019-03-31T15:02:04.827Z,45.94
2019-03-31T15:04:35.629Z,46.01
2019-03-31T15:07:07.003Z,46.12
2019-03-31T15:09:37.451Z,42.68
2019-03-31T15:12:08.316Z,42.83
2019-03-31T15:14:38.764Z,43.71
2019-03-31T15:17:09.403Z,42.35
2019-03-31T15:19:40.143Z,42.85
2019-03-31T15:22:10.865Z,42.61
2019-03-31T15:24:41.365Z,42.31
2019-03-31T15:27:11.826Z,43.28
2019-03-31T15:29:42.430Z,42.52
2019-03-31T15:32:12.913Z,42.64
2019-03-31T15:34:44.431Z,41.53
2019-03-31T15:37:14.893Z,42.46
2019-03-31T15:39:45.713Z,42.51
2019-03-31T15:42:16.463Z,42.01
2019-03-31T15:44:47.293Z,41.37
2019-03-31T15:47:17.896Z,41.33
2019-03-31T15:49:48.547Z,42.01
2019-03-31T15:52:19.019Z,42.83
2019-03-31T15:54:49.884Z,43.64
2019-03-31T15:57:20.524Z,43.26
2019-03-31T15:59:53.429Z,44.29
2019-03-31T16:02:25.455Z,44.20
2019-03-31T16:04:55.913Z,41.17
2019-03-31T16:07:29.075Z,42.21
2019-03-31T16:10:02.337Z,42.05
2019-03-31T16:12:35.368Z,41.50
2019-03-31T16:15:06.099Z,41.16
2019-03-31T16:17:36.571Z,41.65
2019-03-31T16:20:07.369Z,41.18
2019-03-31T16:22:37.879Z,41.63
2019-03-31T16:25:10.087Z,41.74
2019-03-31T16:27:40.585Z,41.86
2019-03-31T16:30:11.086Z,41.75
2019-03-31T16:32:41.665Z,41.62
2019-03-31T16:35:12.277Z,41.45
2019-03-31T16:37:44.035Z,41.49
2019-03-31T16:40:14.577Z,41.61
2019-03-31T16:42:45.194Z,41.93
2019-03-31T16:45:15.669Z,42.17
2019-03-31T16:47:46.805Z,42.09
2019-03-31T16:50:17.645Z,42.32
2019-03-31T16:52:52.503Z,42.16
2019-03-31T16:55:21.776Z,42.17
2019-03-31T16:57:52.251Z,43.41
2019-03-31T17:00:41.547Z,42.45
2019-03-31T17:03:26.718Z,41.71
2019-03-31T17:06:04.057Z,41.45
2019-03-31T17:08:34.679Z,40.60
2019-03-31T17:11:05.579Z,41.61
2019-03-31T17:13:36.160Z,41.62
2019-03-31T17:16:06.563Z,41.13
2019-03-31T17:18:37.104Z,41.70
2019-03-31T17:21:07.674Z,40.42
2019-03-31T17:23:38.076Z,40.76
2019-03-31T17:29:07.910Z,40.45
2019-03-31T17:31:38.805Z,41.06
2019-03-31T17:34:11.002Z,40.44
2019-03-31T17:36:42.640Z,40.81
2019-03-31T17:39:13.442Z,40.79
2019-03-31T17:41:44.139Z,40.38
2019-03-31T17:44:14.725Z,40.40
2019-03-31T17:46:45.547Z,40.80
2019-03-31T17:49:16.291Z,40.79
2019-03-31T17:51:47.505Z,40.18
2019-03-31T17:54:22.638Z,39.76
2019-03-31T17:57:12.662Z,39.57
2019-03-31T17:59:51.035Z,38.82
2019-03-31T18:02:21.419Z,38.47
2019-03-31T18:04:51.961Z,37.89
2019-03-31T18:07:22.531Z,38.12
2019-03-31T18:09:59.086Z,38.14
2019-03-31T18:12:29.866Z,36.63
2019-03-31T18:15:01.020Z,36.89
2019-03-31T18:17:48.405Z,36.81
2019-03-31T18:20:18.852Z,37.20
2019-03-31T18:22:48.589Z,36.92
2019-03-31T18:25:19.148Z,37.38
2019-03-31T18:27:50.972Z,37.49
2019-03-31T18:30:22.001Z,37.36
2019-03-31T18:32:52.445Z,37.85
2019-03-31T18:35:22.824Z,38.55
2019-03-31T18:37:53.642Z,38.38
2019-03-31T18:40:34.730Z,39.25
2019-03-31T18:42:56.439Z,39.36
2019-03-31T18:45:27.095Z,39.73
2019-03-31T18:48:00.896Z,39.86
2019-03-31T18:50:29.988Z,40.63
2019-03-31T18:53:02.124Z,41.21
2019-03-31T18:55:34.334Z,41.51
2019-03-31T18:58:06.425Z,42.16
2019-03-31T19:00:38.568Z,42.12
2019-03-31T19:03:10.913Z,42.59
2019-03-31T19:05:43.013Z,43.44
2019-03-31T19:08:15.583Z,43.58
2019-03-31T19:10:49.663Z,43.29
2019-03-31T19:13:29.701Z,43.21
2019-03-31T19:16:01.735Z,43.83
2019-03-31T19:18:34.164Z,43.75
2019-03-31T19:21:10.937Z,43.93
2019-03-31T19:23:40.231Z,44.16
2019-03-31T19:26:12.364Z,43.98
2019-03-31T19:28:44.476Z,44.14
2019-03-31T19:31:16.935Z,44.88
2019-03-31T19:33:49.269Z,44.51
2019-03-31T19:36:26.040Z,45.30
2019-03-31T19:39:11.549Z,45.27
2019-03-31T19:41:48.976Z,45.64
2019-03-31T19:44:33.449Z,45.76
2019-03-31T19:47:45.137Z,46.28
2019-03-31T19:50:37.305Z,46.77
2019-03-31T19:53:17.785Z,47.29
2019-03-31T19:55:50.206Z,47.66
2019-03-31T19:58:22.847Z,48.19
2019-03-31T20:00:55.479Z,48.18
2019-03-31T20:03:28.345Z,48.45
2019-03-31T20:06:00.487Z,49.02
2019-03-31T20:08:33.087Z,49.01
2019-03-31T20:11:12.263Z,49.56
2019-03-31T20:13:50.206Z,49.56
2019-03-31T20:16:24.847Z,49.96
2019-03-31T20:18:57.526Z,50.19
2019-03-31T20:21:32.319Z,50.20
2019-03-31T20:24:04.528Z,50.46
2019-03-31T20:26:37.341Z,51.07
2019-03-31T20:29:10.006Z,50.89
2019-03-31T20:31:42.286Z,50.96
2019-03-31T20:34:15.246Z,51.27
2019-03-31T20:36:49.128Z,51.77
2019-03-31T20:39:21.406Z,51.83
2019-03-31T20:41:54.206Z,52.29
2019-03-31T20:44:26.405Z,52.01
2019-03-31T20:46:57.039Z,52.36
2019-03-31T20:49:27.968Z,52.65
2019-03-31T20:52:00.825Z,53.15
2019-03-31T20:54:33.221Z,53.18
2019-03-31T20:57:05.064Z,53.29
2019-03-31T20:59:36.138Z,53.61
2019-03-31T21:02:09.025Z,53.76
2019-03-31T21:04:40.455Z,54.17
2019-03-31T21:07:11.084Z,54.37
2019-03-31T21:09:45.038Z,54.85
2019-03-31T21:12:16.066Z,55.20
2019-03-31T21:14:47.538Z,55.85
2019-03-31T21:17:20.226Z,55.37
2019-03-31T21:19:51.770Z,55.80
2019-03-31T21:22:23.546Z,56.05
2019-03-31T21:24:55.731Z,56.67
2019-03-31T21:27:27.447Z,56.46
2019-03-31T21:29:58.343Z,56.83
2019-03-31T21:32:30.365Z,56.70
2019-03-31T21:35:02.564Z,57.33
2019-03-31T21:37:34.025Z,57.58
2019-03-31T21:40:07.272Z,57.86
2019-03-31T21:42:38.844Z,57.29
2019-03-31T21:45:11.564Z,57.34
2019-03-31T21:47:43.665Z,57.98
2019-03-31T21:50:14.568Z,58.17
2019-03-31T21:52:45.500Z,57.62
2019-03-31T21:55:16.289Z,57.82
2019-03-31T21:57:47.489Z,57.58
2019-03-31T22:00:20.164Z,58.54
2019-03-31T22:02:51.472Z,57.73
2019-03-31T22:05:22.371Z,57.82
2019-03-31T22:07:53.325Z,58.98
2019-03-31T22:10:24.911Z,58.63
2019-03-31T22:12:55.743Z,58.44
2019-03-31T22:15:27.130Z,59.18
2019-03-31T22:17:58.111Z,58.78
2019-03-31T22:20:28.973Z,58.62
2019-03-31T22:23:00.023Z,59.87
2019-03-31T22:25:31.112Z,59.25
2019-03-31T22:28:01.936Z,59.79
2019-03-31T22:30:35.430Z,59.96
2019-03-31T22:33:06.391Z,59.72
2019-03-31T22:35:38.353Z,60.20
2019-03-31T22:38:09.438Z,60.04
2019-03-31T22:40:41.002Z,59.78
2019-03-31T22:43:11.999Z,60.92
2019-03-31T22:45:43.338Z,60.57
2019-03-31T22:48:14.627Z,61.01
2019-03-31T22:50:46.204Z,61.62
2019-03-31T22:53:17.311Z,61.52
2019-03-31T22:55:48.586Z,61.81
2019-03-31T22:58:20.152Z,62.17
2019-03-31T23:00:51.306Z,62.10
2019-03-31T23:03:21.751Z,63.01
2019-03-31T23:05:53.785Z,62.96
2019-03-31T23:08:25.141Z,62.68
2019-03-31T23:10:55.947Z,62.72
2019-03-31T23:13:27.503Z,63.41
2019-03-31T23:15:58.819Z,63.23
2019-03-31T23:18:29.866Z,63.80
2019-03-31T23:21:00.777Z,63.46
2019-03-31T23:23:31.809Z,63.45
2019-03-31T23:26:02.699Z,63.52
2019-03-31T23:28:33.245Z,64.10
2019-03-31T23:31:03.890Z,64.51
2019-03-31T23:33:35.105Z,64.65
2019-03-31T23:36:06.064Z,64.59
2019-03-31T23:38:37.143Z,65.27
2019-03-31T23:41:08.677Z,65.57
2019-03-31T23:43:39.377Z,65.50
2019-03-31T23:46:10.485Z,66.20
2019-03-31T23:48:42.303Z,66.08
2019-03-31T23:51:13.347Z,66.97
2019-03-31T23:53:44.506Z,67.14
2019-03-31T23:56:15.350Z,66.97
2019-03-31T23:58:46.538Z,67.20
